sensor_id;sensor_type;location;lat;lon;timestamp;pressure;altitude;pressure_sealevel;temperature;humidity
34921;BME280;21128;50.016;20.002;2022-11-15T00:01:09;99246.45;;;3.99;100.00
34921;BME280;21128;50.016;20.002;2022-11-15T00:03:55;99242.28;;;3.96;100.00
34921;BME280;21128;50.016;20.002;2022-11-15T00:06:40;99239.75;;;3.94;100.00
34921;BME280;21128;50.016;20.002;2022-11-15T00:09:25;99236.41;;;3.92;100.00
34921;BME280;21128;50.016;20.002;2022-11-15T00:12:11;99242.64;;;3.90;100.00
34921;BME280;21128;50.016;20.002;2022-11-15T00:15:04;99244.50;;;3.88;100.00
34921;BME280;21128;50.016;20.002;2022-11-15T00:17:56;99236.12;;;3.83;100.00
34921;BME280;21128;50.016;20.002;2022-11-15T00:20:42;99225.91;;;3.80;100.00
34921;BME280;21128;50.016;20.002;2022-11-15T00:23:28;99228.67;;;3.77;100.00
34921;BME280;21128;50.016;20.002;2022-11-15T00:26:14;99223.37;;;3.78;100.00
34921;BME280;21128;50.016;20.002;2022-11-15T00:29:00;99231.11;;;3.80;100.00
34921;BME280;21128;50.016;20.002;2022-11-15T00:31:45;99222.38;;;3.81;100.00
34921;BME280;21128;50.016;20.002;2022-11-15T00:34:31;99222.19;;;3.84;100.00
34921;BME280;21128;50.016;20.002;2022-11-15T00:37:23;99213.46;;;3.85;100.00
34921;BME280;21128;50.016;20.002;2022-11-15T00:40:09;99212.53;;;3.86;100.00
34921;BME280;21128;50.016;20.002;2022-11-15T00:42:55;99211.16;;;3.80;100.00
34921;BME280;21128;50.016;20.002;2022-11-15T00:45:40;99201.75;;;3.78;100.00
34921;BME280;21128;50.016;20.002;2022-11-15T00:48:25;99208.81;;;3.76;100.00
34921;BME280;21128;50.016;20.002;2022-11-15T00:51:11;99209.83;;;3.73;100.00
34921;BME280;21128;50.016;20.002;2022-11-15T00:54:03;99196.00;;;3.73;100.00
34921;BME280;21128;50.016;20.002;2022-11-15T00:56:49;99197.86;;;3.71;100.00
34921;BME280;21128;50.016;20.002;2022-11-15T00:59:34;99194.50;;;3.68;100.00
34921;BME280;21128;50.016;20.002;2022-11-15T01:02:20;99198.13;;;3.66;100.00
34921;BME280;21128;50.016;20.002;2022-11-15T01:05:06;99189.68;;;3.62;100.00
34921;BME280;21128;50.016;20.002;2022-11-15T01:07:52;99192.28;;;3.62;100.00
34921;BME280;21128;50.016;20.002;2022-11-15T01:10:38;99192.44;;;3.59;100.00
34921;BME280;21128;50.016;20.002;2022-11-15T01:13:43;99191.70;;;3.57;100.00
34921;BME280;21128;50.016;20.002;2022-11-15T01:16:29;99191.05;;;3.54;100.00
34921;BME280;21128;50.016;20.002;2022-11-15T01:19:14;99187.78;;;3.50;100.00
34921;BME280;21128;50.016;20.002;2022-11-15T01:22:00;99192.98;;;3.50;100.00
34921;BME280;21128;50.016;20.002;2022-11-15T01:24:46;99196.50;;;3.49;100.00
34921;BME280;21128;50.016;20.002;2022-11-15T01:27:31;99194.84;;;3.48;100.00
34921;BME280;21128;50.016;20.002;2022-11-15T01:30:17;99187.63;;;3.53;100.00
34921;BME280;21128;50.016;20.002;2022-11-15T01:33:03;99186.59;;;3.56;100.00
34921;BME280;21128;50.016;20.002;2022-11-15T01:35:48;99181.30;;;3.57;100.00
34921;BME280;21128;50.016;20.002;2022-11-15T01:38:40;99174.16;;;3.61;100.00
34921;BME280;21128;50.016;20.002;2022-11-15T01:41:29;99179.28;;;3.62;100.00
34921;BME280;21128;50.016;20.002;2022-11-15T01:47:23;99180.38;;;3.58;100.00
34921;BME280;21128;50.016;20.002;2022-11-15T01:50:14;99180.66;;;3.54;100.00
34921;BME280;21128;50.016;20.002;2022-11-15T01:53:08;99182.93;;;3.44;100.00
34921;BME280;21128;50.016;20.002;2022-11-15T01:56:04;99183.31;;;3.38;100.00
34921;BME280;21128;50.016;20.002;2022-11-15T01:58:53;99175.77;;;3.33;100.00
34921;BME280;21128;50.016;20.002;2022-11-15T02:01:41;99173.08;;;3.35;100.00
34921;BME280;21128;50.016;20.002;2022-11-15T02:04:28;99165.13;;;3.38;100.00
34921;BME280;21128;50.016;20.002;2022-11-15T02:07:19;99169.20;;;3.42;100.00
34921;BME280;21128;50.016;20.002;2022-11-15T02:10:09;99160.48;;;3.43;100.00
34921;BME280;21128;50.016;20.002;2022-11-15T02:13:02;99165.58;;;3.45;100.00
34921;BME280;21128;50.016;20.002;2022-11-15T02:16:16;99160.48;;;3.43;100.00
34921;BME280;21128;50.016;20.002;2022-11-15T02:31:49;99147.68;;;3.40;100.00
34921;BME280;21128;50.016;20.002;2022-11-15T02:37:56;99149.25;;;3.43;100.00
34921;BME280;21128;50.016;20.002;2022-11-15T02:44:02;99139.24;;;3.36;100.00
34921;BME280;21128;50.016;20.002;2022-11-15T02:46:55;99134.30;;;3.32;100.00
34921;BME280;21128;50.016;20.002;2022-11-15T02:50:06;99138.17;;;3.25;100.00
34921;BME280;21128;50.016;20.002;2022-11-15T02:52:59;99139.45;;;3.18;100.00
34921;BME280;21128;50.016;20.002;2022-11-15T02:55:47;99127.83;;;3.09;100.00
34921;BME280;21128;50.016;20.002;2022-11-15T02:58:54;99129.94;;;3.02;100.00
34921;BME280;21128;50.016;20.002;2022-11-15T03:04:57;99123.97;;;2.86;100.00
34921;BME280;21128;50.016;20.002;2022-11-15T03:14:00;99111.00;;;2.86;100.00
34921;BME280;21128;50.016;20.002;2022-11-15T03:20:08;99105.52;;;2.91;100.00
34921;BME280;21128;50.016;20.002;2022-11-15T03:23:06;99108.86;;;2.93;100.00
34921;BME280;21128;50.016;20.002;2022-11-15T03:25:54;99110.47;;;2.95;100.00
34921;BME280;21128;50.016;20.002;2022-11-15T03:28:46;99099.25;;;2.95;100.00
34921;BME280;21128;50.016;20.002;2022-11-15T03:31:38;99101.08;;;2.93;100.00
34921;BME280;21128;50.016;20.002;2022-11-15T03:37:33;99096.31;;;2.85;100.00
34921;BME280;21128;50.016;20.002;2022-11-15T03:40:35;99092.89;;;2.85;100.00
34921;BME280;21128;50.016;20.002;2022-11-15T03:43:43;99096.31;;;2.85;100.00
34921;BME280;21128;50.016;20.002;2022-11-15T03:46:38;99093.72;;;2.85;100.00
34921;BME280;21128;50.016;20.002;2022-11-15T03:49:36;99088.81;;;2.80;100.00
34921;BME280;21128;50.016;20.002;2022-11-15T03:52:23;99083.95;;;2.74;100.00
34921;BME280;21128;50.016;20.002;2022-11-15T03:55:13;99081.64;;;2.70;100.00
34921;BME280;21128;50.016;20.002;2022-11-15T03:58:00;99064.56;;;2.66;100.00
34921;BME280;21128;50.016;20.002;2022-11-15T04:00:46;99065.48;;;2.65;100.00
34921;BME280;21128;50.016;20.002;2022-11-15T04:03:31;99062.06;;;2.64;100.00
34921;BME280;21128;50.016;20.002;2022-11-15T04:06:17;99057.95;;;2.60;100.00
34921;BME280;21128;50.016;20.002;2022-11-15T04:09:03;99056.47;;;2.56;100.00
34921;BME280;21128;50.016;20.002;2022-11-15T04:11:48;99043.59;;;2.54;100.00
34921;BME280;21128;50.016;20.002;2022-11-15T04:14:47;99044.52;;;2.53;100.00
34921;BME280;21128;50.016;20.002;2022-11-15T04:17:55;99041.15;;;2.51;100.00
34921;BME280;21128;50.016;20.002;2022-11-15T04:20:41;99038.73;;;2.48;100.00
34921;BME280;21128;50.016;20.002;2022-11-15T04:23:47;99029.20;;;2.49;100.00
34921;BME280;21128;50.016;20.002;2022-11-15T04:26:38;99032.47;;;2.52;100.00
34921;BME280;21128;50.016;20.002;2022-11-15T04:29:23;99018.48;;;2.55;100.00
34921;BME280;21128;50.016;20.002;2022-11-15T04:32:21;99014.86;;;2.58;100.00
34921;BME280;21128;50.016;20.002;2022-11-15T04:35:07;99019.13;;;2.59;100.00
34921;BME280;21128;50.016;20.002;2022-11-15T04:37:53;99012.86;;;2.63;100.00
34921;BME280;21128;50.016;20.002;2022-11-15T04:40:39;99015.45;;;2.63;100.00
34921;BME280;21128;50.016;20.002;2022-11-15T04:43:24;99007.67;;;2.63;100.00
34921;BME280;21128;50.016;20.002;2022-11-15T04:46:10;99007.77;;;2.61;100.00
34921;BME280;21128;50.016;20.002;2022-11-15T04:49:01;99009.52;;;2.61;100.00
34921;BME280;21128;50.016;20.002;2022-11-15T04:51:47;99002.39;;;2.64;100.00
34921;BME280;21128;50.016;20.002;2022-11-15T04:54:33;99001.46;;;2.65;100.00
34921;BME280;21128;50.016;20.002;2022-11-15T04:57:26;98995.25;;;2.68;100.00
34921;BME280;21128;50.016;20.002;2022-11-15T05:00:15;98993.48;;;2.68;100.00
34921;BME280;21128;50.016;20.002;2022-11-15T05:03:01;98992.01;;;2.64;100.00
34921;BME280;21128;50.016;20.002;2022-11-15T05:06:07;98990.44;;;2.62;100.00
34921;BME280;21128;50.016;20.002;2022-11-15T05:08:53;99001.55;;;2.64;100.00
34921;BME280;21128;50.016;20.002;2022-11-15T05:11:38;98992.01;;;2.64;100.00
34921;BME280;21128;50.016;20.002;2022-11-15T05:14:31;98982.72;;;2.60;100.00
34921;BME280;21128;50.016;20.002;2022-11-15T05:17:16;98977.81;;;2.56;100.00
34921;BME280;21128;50.016;20.002;2022-11-15T05:20:02;98985.78;;;2.52;100.00
34921;BME280;21128;50.016;20.002;2022-11-15T05:22:48;98984.27;;;2.48;100.00
34921;BME280;21128;50.016;20.002;2022-11-15T05:25:36;98982.79;;;2.44;100.00
34921;BME280;21128;50.016;20.002;2022-11-15T05:28:22;98987.30;;;2.41;100.00
34921;BME280;21128;50.016;20.002;2022-11-15T05:31:12;98980.63;;;2.37;100.00
34921;BME280;21128;50.016;20.002;2022-11-15T05:33:59;98980.78;;;2.34;100.00
34921;BME280;21128;50.016;20.002;2022-11-15T05:36:52;98973.28;;;2.29;100.00
34921;BME280;21128;50.016;20.002;2022-11-15T05:39:38;98969.95;;;2.27;100.00
34921;BME280;21128;50.016;20.002;2022-11-15T05:42:25;98964.27;;;2.20;100.00
34921;BME280;21128;50.016;20.002;2022-11-15T05:45:12;98967.94;;;2.16;100.00
34921;BME280;21128;50.016;20.002;2022-11-15T05:47:59;98965.71;;;2.10;100.00
34921;BME280;21128;50.016;20.002;2022-11-15T05:50:46;98974.56;;;2.06;100.00
34921;BME280;21128;50.016;20.002;2022-11-15T05:53:39;98968.97;;;1.98;100.00
34921;BME280;21128;50.016;20.002;2022-11-15T05:56:31;98973.50;;;1.94;100.00
34921;BME280;21128;50.016;20.002;2022-11-15T05:59:18;98975.31;;;1.92;100.00
34921;BME280;21128;50.016;20.002;2022-11-15T06:02:04;98977.02;;;1.93;100.00
34921;BME280;21128;50.016;20.002;2022-11-15T06:04:50;98974.42;;;1.93;100.00
34921;BME280;21128;50.016;20.002;2022-11-15T06:07:35;98973.56;;;1.93;100.00
34921;BME280;21128;50.016;20.002;2022-11-15T06:10:21;98966.98;;;1.87;100.00
34921;BME280;21128;50.016;20.002;2022-11-15T06:13:06;98964.72;;;1.81;100.00
34921;BME280;21128;50.016;20.002;2022-11-15T06:16:05;98963.05;;;1.80;100.00
34921;BME280;21128;50.016;20.002;2022-11-15T06:18:57;98952.69;;;1.80;100.00
34921;BME280;21128;50.016;20.002;2022-11-15T06:21:43;98960.45;;;1.80;100.00
34921;BME280;21128;50.016;20.002;2022-11-15T06:24:29;98957.95;;;1.79;100.00
34921;BME280;21128;50.016;20.002;2022-11-15T06:27:14;98961.38;;;1.79;100.00
34921;BME280;21128;50.016;20.002;2022-11-15T06:30:00;98954.35;;;1.81;100.00
34921;BME280;21128;50.016;20.002;2022-11-15T06:32:45;98949.83;;;1.85;100.00
34921;BME280;21128;50.016;20.002;2022-11-15T06:35:33;98949.77;;;1.86;100.00
34921;BME280;21128;50.016;20.002;2022-11-15T06:38:19;98961.62;;;1.90;100.00
34921;BME280;21128;50.016;20.002;2022-11-15T06:41:07;98958.10;;;1.91;100.00
34921;BME280;21128;50.016;20.002;2022-11-15T06:43:53;98953.75;;;1.92;100.00
34921;BME280;21128;50.016;20.002;2022-11-15T06:46:39;98962.45;;;1.91;100.00
34921;BME280;21128;50.016;20.002;2022-11-15T06:49:24;98958.88;;;1.93;100.00
34921;BME280;21128;50.016;20.002;2022-11-15T06:52:10;98955.42;;;1.93;100.00
34921;BME280;21128;50.016;20.002;2022-11-15T06:54:55;98954.25;;;1.98;100.00
34921;BME280;21128;50.016;20.002;2022-11-15T06:57:52;98957.44;;;2.04;100.00
34921;BME280;21128;50.016;20.002;2022-11-15T07:00:38;98946.70;;;2.10;100.00
34921;BME280;21128;50.016;20.002;2022-11-15T07:03:24;98949.05;;;2.14;100.00
34921;BME280;21128;50.016;20.002;2022-11-15T07:06:09;98954.05;;;2.17;100.00
34921;BME280;21128;50.016;20.002;2022-11-15T07:08:55;98960.56;;;2.24;100.00
34921;BME280;21128;50.016;20.002;2022-11-15T07:11:41;98958.47;;;2.31;100.00
34921;BME280;21128;50.016;20.002;2022-11-15T07:14:47;98957.53;;;2.32;100.00
34921;BME280;21128;50.016;20.002;2022-11-15T07:17:33;98963.89;;;2.26;100.00
34921;BME280;21128;50.016;20.002;2022-11-15T07:20:18;98962.17;;;2.27;100.00
34921;BME280;21128;50.016;20.002;2022-11-15T07:23:05;98962.72;;;2.32;100.00
34921;BME280;21128;50.016;20.002;2022-11-15T07:25:51;98954.41;;;2.41;100.00
34921;BME280;21128;50.016;20.002;2022-11-15T07:28:36;98959.45;;;2.44;100.00
34921;BME280;21128;50.016;20.002;2022-11-15T07:31:22;98944.63;;;2.46;100.00
34921;BME280;21128;50.016;20.002;2022-11-15T07:34:08;98940.76;;;2.53;100.00
34921;BME280;21128;50.016;20.002;2022-11-15T07:36:55;98934.45;;;2.58;100.00
34921;BME280;21128;50.016;20.002;2022-11-15T07:39:40;98931.86;;;2.58;100.00
34921;BME280;21128;50.016;20.002;2022-11-15T07:42:26;98933.36;;;2.62;100.00
34921;BME280;21128;50.016;20.002;2022-11-15T07:45:31;98934.29;;;2.61;100.00
34921;BME280;21128;50.016;20.002;2022-11-15T07:48:18;98937.58;;;2.48;100.00
34921;BME280;21128;50.016;20.002;2022-11-15T07:51:04;98936.36;;;2.40;100.00
34921;BME280;21128;50.016;20.002;2022-11-15T07:53:49;98931.61;;;2.32;100.00
34921;BME280;21128;50.016;20.002;2022-11-15T07:56:35;98936.45;;;2.38;100.00
34921;BME280;21128;50.016;20.002;2022-11-15T07:59:27;98927.20;;;2.48;100.00
34921;BME280;21128;50.016;20.002;2022-11-15T08:02:12;98924.17;;;2.56;100.00
34921;BME280;21128;50.016;20.002;2022-11-15T08:04:58;98929.26;;;2.58;100.00
34921;BME280;21128;50.016;20.002;2022-11-15T08:07:44;98917.80;;;2.62;100.00
34921;BME280;21128;50.016;20.002;2022-11-15T08:10:30;98924.27;;;2.69;100.00
34921;BME280;21128;50.016;20.002;2022-11-15T08:13:15;98924.74;;;2.75;100.00
34921;BME280;21128;50.016;20.002;2022-11-15T08:16:13;98909.84;;;2.79;100.00
34921;BME280;21128;50.016;20.002;2022-11-15T08:18:59;98912.51;;;2.77;100.00
34921;BME280;21128;50.016;20.002;2022-11-15T08:21:51;98912.05;;;2.85;100.00
34921;BME280;21128;50.016;20.002;2022-11-15T08:24:44;98920.78;;;2.98;100.00
34921;BME280;21128;50.016;20.002;2022-11-15T08:27:30;98921.63;;;3.13;100.00
34921;BME280;21128;50.016;20.002;2022-11-15T08:30:15;98915.67;;;3.25;100.00
34921;BME280;21128;50.016;20.002;2022-11-15T08:33:01;98912.80;;;3.30;100.00
34921;BME280;21128;50.016;20.002;2022-11-15T08:35:48;98906.21;;;3.24;100.00
34921;BME280;21128;50.016;20.002;2022-11-15T08:38:34;98906.31;;;3.23;100.00
34921;BME280;21128;50.016;20.002;2022-11-15T08:41:29;98907.05;;;3.25;100.00
34921;BME280;21128;50.016;20.002;2022-11-15T08:44:22;98913.80;;;3.27;100.00
34921;BME280;21128;50.016;20.002;2022-11-15T08:47:12;98908.71;;;3.26;100.00
34921;BME280;21128;50.016;20.002;2022-11-15T08:49:58;98904.08;;;3.31;100.00
34921;BME280;21128;50.016;20.002;2022-11-15T08:52:44;98907.87;;;3.39;100.00
34921;BME280;21128;50.016;20.002;2022-11-15T08:55:29;98912.59;;;3.47;100.00
34921;BME280;21128;50.016;20.002;2022-11-15T08:58:15;98908.68;;;3.54;100.00
34921;BME280;21128;50.016;20.002;2022-11-15T09:01:16;98903.18;;;3.59;100.00
34921;BME280;21128;50.016;20.002;2022-11-15T09:04:02;98904.57;;;3.64;100.00
34921;BME280;21128;50.016;20.002;2022-11-15T09:06:49;98903.43;;;3.68;100.00
34921;BME280;21128;50.016;20.002;2022-11-15T09:09:35;98895.63;;;3.68;100.00
34921;BME280;21128;50.016;20.002;2022-11-15T09:12:21;98900.00;;;3.68;100.00
34921;BME280;21128;50.016;20.002;2022-11-15T09:15:20;98895.63;;;3.68;100.00
34921;BME280;21128;50.016;20.002;2022-11-15T09:18:06;98886.73;;;3.73;100.00
34921;BME280;21128;50.016;20.002;2022-11-15T09:20:55;98889.28;;;3.87;100.00
34921;BME280;21128;50.016;20.002;2022-11-15T09:23:41;98879.73;;;4.00;100.00
34921;BME280;21128;50.016;20.002;2022-11-15T09:26:27;98881.13;;;4.18;100.00
34921;BME280;21128;50.016;20.002;2022-11-15T09:29:12;98876.59;;;4.35;100.00
34921;BME280;21128;50.016;20.002;2022-11-15T09:31:58;98875.45;;;4.51;100.00
34921;BME280;21128;50.016;20.002;2022-11-15T09:34:43;98872.23;;;4.61;100.00
34921;BME280;21128;50.016;20.002;2022-11-15T09:37:31;98866.02;;;4.63;100.00
34921;BME280;21128;50.016;20.002;2022-11-15T09:40:24;98859.42;;;4.70;100.00
34921;BME280;21128;50.016;20.002;2022-11-15T09:47:01;98860.48;;;4.80;100.00
34921;BME280;21128;50.016;20.002;2022-11-15T09:49:53;98868.07;;;4.84;100.00
34921;BME280;21128;50.016;20.002;2022-11-15T09:52:42;98864.23;;;4.89;100.00
34921;BME280;21128;50.016;20.002;2022-11-15T09:55:40;98866.72;;;4.91;100.00
34921;BME280;21128;50.016;20.002;2022-11-15T09:58:57;98859.02;;;4.89;100.00
34921;BME280;21128;50.016;20.002;2022-11-15T10:04:53;98867.13;;;4.85;100.00
34921;BME280;21128;50.016;20.002;2022-11-15T10:08:02;98853.17;;;4.86;100.00
34921;BME280;21128;50.016;20.002;2022-11-15T10:11:00;98857.66;;;4.96;100.00
34921;BME280;21128;50.016;20.002;2022-11-15T10:13:48;98839.62;;;5.06;100.00
34921;BME280;21128;50.016;20.002;2022-11-15T10:17:18;98842.70;;;5.24;100.00
34921;BME280;21128;50.016;20.002;2022-11-15T10:20:12;98839.30;;;5.47;100.00
34921;BME280;21128;50.016;20.002;2022-11-15T10:23:06;98830.81;;;5.80;100.00
34921;BME280;21128;50.016;20.002;2022-11-15T10:25:58;98822.61;;;5.98;100.00
34921;BME280;21128;50.016;20.002;2022-11-15T10:28:50;98824.53;;;6.07;100.00
34921;BME280;21128;50.016;20.002;2022-11-15T10:31:39;98810.36;;;6.33;100.00
34921;BME280;21128;50.016;20.002;2022-11-15T10:34:26;98807.77;;;6.56;100.00
34921;BME280;21128;50.016;20.002;2022-11-15T10:37:12;98792.36;;;6.75;100.00
34921;BME280;21128;50.016;20.002;2022-11-15T10:40:19;98790.22;;;6.91;100.00
34921;BME280;21128;50.016;20.002;2022-11-15T10:43:14;98786.63;;;7.03;100.00
34921;BME280;21128;50.016;20.002;2022-11-15T10:46:20;98782.61;;;6.99;100.00
34921;BME280;21128;50.016;20.002;2022-11-15T10:49:13;98780.47;;;6.93;100.00
34921;BME280;21128;50.016;20.002;2022-11-15T10:52:01;98774.27;;;7.05;100.00
34921;BME280;21128;50.016;20.002;2022-11-15T10:54:54;98777.36;;;7.11;100.00
34921;BME280;21128;50.016;20.002;2022-11-15T10:57:49;98770.50;;;6.98;100.00
34921;BME280;21128;50.016;20.002;2022-11-15T11:00:36;98763.50;;;6.99;100.00
34921;BME280;21128;50.016;20.002;2022-11-15T11:03:35;98751.70;;;7.04;100.00
34921;BME280;21128;50.016;20.002;2022-11-15T11:06:23;98749.31;;;7.13;100.00
34921;BME280;21128;50.016;20.002;2022-11-15T11:09:34;98742.91;;;7.17;100.00
34921;BME280;21128;50.016;20.002;2022-11-15T11:12:27;98734.07;;;7.29;100.00
34921;BME280;21128;50.016;20.002;2022-11-15T11:15:27;98721.81;;;7.41;100.00
34921;BME280;21128;50.016;20.002;2022-11-15T11:18:29;98728.77;;;7.51;100.00
34921;BME280;21128;50.016;20.002;2022-11-15T11:21:43;98730.49;;;7.62;100.00
34921;BME280;21128;50.016;20.002;2022-11-15T11:24:46;98718.21;;;7.74;100.00
34921;BME280;21128;50.016;20.002;2022-11-15T11:30:57;98715.02;;;7.91;100.00
34921;BME280;21128;50.016;20.002;2022-11-15T11:34:04;98721.83;;;8.03;100.00
34921;BME280;21128;50.016;20.002;2022-11-15T11:37:04;98719.95;;;8.15;100.00
34921;BME280;21128;50.016;20.002;2022-11-15T11:40:16;98721.69;;;8.26;100.00
34921;BME280;21128;50.016;20.002;2022-11-15T11:43:18;98710.33;;;8.36;100.00
34921;BME280;21128;50.016;20.002;2022-11-15T11:49:19;98696.39;;;8.66;100.00
34921;BME280;21128;50.016;20.002;2022-11-15T11:52:21;98689.78;;;8.82;100.00
34921;BME280;21128;50.016;20.002;2022-11-15T11:58:18;98679.75;;;8.96;100.00
34921;BME280;21128;50.016;20.002;2022-11-15T12:06:56;98676.84;;;8.90;100.00
34921;BME280;21128;50.016;20.002;2022-11-15T12:10:02;98678.78;;;8.88;100.00
34921;BME280;21128;50.016;20.002;2022-11-15T12:13:09;98671.88;;;8.87;100.00
34921;BME280;21128;50.016;20.002;2022-11-15T12:16:27;98675.72;;;8.83;100.00
34921;BME280;21128;50.016;20.002;2022-11-15T12:19:14;98658.63;;;8.79;100.00
34921;BME280;21128;50.016;20.002;2022-11-15T12:22:15;98661.92;;;8.71;100.00
34921;BME280;21128;50.016;20.002;2022-11-15T12:25:07;98664.24;;;8.64;100.00
34921;BME280;21128;50.016;20.002;2022-11-15T12:31:12;98665.33;;;8.52;100.00
34921;BME280;21128;50.016;20.002;2022-11-15T12:34:01;98656.89;;;8.49;100.00
34921;BME280;21128;50.016;20.002;2022-11-15T12:36:49;98651.48;;;8.40;100.00
34921;BME280;21128;50.016;20.002;2022-11-15T12:40:18;98652.34;;;8.41;100.00
34921;BME280;21128;50.016;20.002;2022-11-15T12:43:40;98647.21;;;8.39;100.00
34921;BME280;21128;50.016;20.002;2022-11-15T12:52:09;98636.22;;;8.45;100.00
34921;BME280;21128;50.016;20.002;2022-11-15T12:54:57;98634.72;;;8.53;100.00
34921;BME280;21128;50.016;20.002;2022-11-15T12:57:44;98632.13;;;8.62;100.00
34921;BME280;21128;50.016;20.002;2022-11-15T13:00:37;98632.13;;;8.62;100.00
34921;BME280;21128;50.016;20.002;2022-11-15T13:03:34;98620.82;;;8.62;100.00
34921;BME280;21128;50.016;20.002;2022-11-15T13:15:45;98618.36;;;8.80;100.00
34921;BME280;21128;50.016;20.002;2022-11-15T13:18:40;98624.18;;;8.83;100.00
34921;BME280;21128;50.016;20.002;2022-11-15T13:21:26;98620.45;;;8.86;100.00
34921;BME280;21128;50.016;20.002;2022-11-15T13:24:30;98612.30;;;8.89;100.00
34921;BME280;21128;50.016;20.002;2022-11-15T13:27:18;98603.76;;;8.87;100.00
34921;BME280;21128;50.016;20.002;2022-11-15T13:30:31;98602.94;;;8.86;100.00
34921;BME280;21128;50.016;20.002;2022-11-15T13:33:34;98600.45;;;8.85;100.00
34921;BME280;21128;50.016;20.002;2022-11-15T13:36:29;98591.87;;;8.83;100.00
34921;BME280;21128;50.016;20.002;2022-11-15T13:42:22;98597.69;;;8.86;100.00
34921;BME280;21128;50.016;20.002;2022-11-15T13:45:16;98588.72;;;8.89;100.00
34921;BME280;21128;50.016;20.002;2022-11-15T13:48:03;98573.00;;;8.89;100.00
34921;BME280;21128;50.016;20.002;2022-11-15T13:50:48;98569.55;;;8.88;100.00
34921;BME280;21128;50.016;20.002;2022-11-15T13:53:37;98558.25;;;8.88;100.00
34921;BME280;21128;50.016;20.002;2022-11-15T13:56:27;98561.84;;;8.87;100.00
34921;BME280;21128;50.016;20.002;2022-11-15T13:59:20;98565.28;;;8.87;100.00
34921;BME280;21128;50.016;20.002;2022-11-15T14:02:17;98572.31;;;8.87;100.00
34921;BME280;21128;50.016;20.002;2022-11-15T14:05:16;98571.20;;;8.89;100.00
34921;BME280;21128;50.016;20.002;2022-11-15T14:08:21;98563.48;;;8.88;100.00
34921;BME280;21128;50.016;20.002;2022-11-15T14:11:19;98570.38;;;8.89;100.00
34921;BME280;21128;50.016;20.002;2022-11-15T14:20:34;98571.77;;;8.93;100.00
34921;BME280;21128;50.016;20.002;2022-11-15T14:23:26;98567.89;;;8.97;100.00
34921;BME280;21128;50.016;20.002;2022-11-15T14:26:32;98558.38;;;8.96;100.00
34921;BME280;21128;50.016;20.002;2022-11-15T14:29:29;98547.22;;;8.94;100.00
34921;BME280;21128;50.016;20.002;2022-11-15T14:32:26;98544.75;;;8.92;100.00
34921;BME280;21128;50.016;20.002;2022-11-15T14:35:18;98545.57;;;8.93;100.00
34921;BME280;21128;50.016;20.002;2022-11-15T14:38:04;98537.71;;;8.93;100.00
34921;BME280;21128;50.016;20.002;2022-11-15T14:40:50;98543.09;;;8.91;100.00
34921;BME280;21128;50.016;20.002;2022-11-15T14:43:42;98549.16;;;8.92;100.00
34921;BME280;21128;50.016;20.002;2022-11-15T14:46:28;98544.17;;;8.89;100.00
34921;BME280;21128;50.016;20.002;2022-11-15T14:49:20;98542.38;;;8.89;100.00
34921;BME280;21128;50.016;20.002;2022-11-15T14:52:32;98545.97;;;8.88;100.00
34921;BME280;21128;50.016;20.002;2022-11-15T14:55:29;98535.63;;;8.87;100.00
34921;BME280;21128;50.016;20.002;2022-11-15T14:58:17;98526.12;;;8.86;100.00
34921;BME280;21128;50.016;20.002;2022-11-15T15:01:10;98534.95;;;8.85;100.00
34921;BME280;21128;50.016;20.002;2022-11-15T15:04:04;98522.94;;;8.82;100.00
34921;BME280;21128;50.016;20.002;2022-11-15T15:06:49;98529.00;;;8.83;100.00
34921;BME280;21128;50.016;20.002;2022-11-15T15:09:35;98524.62;;;8.83;100.00
34921;BME280;21128;50.016;20.002;2022-11-15T15:12:22;98520.31;;;8.82;100.00
34921;BME280;21128;50.016;20.002;2022-11-15T15:15:35;98518.52;;;8.83;100.00
34921;BME280;21128;50.016;20.002;2022-11-15T15:18:28;98517.44;;;8.85;100.00
34921;BME280;21128;50.016;20.002;2022-11-15T15:21:24;98511.38;;;8.85;100.00
34921;BME280;21128;50.016;20.002;2022-11-15T15:24:14;98508.61;;;8.86;100.00
34921;BME280;21128;50.016;20.002;2022-11-15T15:27:00;98505.98;;;8.86;100.00
34921;BME280;21128;50.016;20.002;2022-11-15T15:29:52;98497.30;;;8.86;100.00
34921;BME280;21128;50.016;20.002;2022-11-15T15:32:38;98507.64;;;8.87;100.00
34921;BME280;21128;50.016;20.002;2022-11-15T15:35:27;98504.19;;;8.87;100.00
34921;BME280;21128;50.016;20.002;2022-11-15T15:38:14;98501.72;;;8.85;100.00
34921;BME280;21128;50.016;20.002;2022-11-15T15:41:00;98489.59;;;8.84;100.00
34921;BME280;21128;50.016;20.002;2022-11-15T15:43:48;98492.21;;;8.84;100.00
34921;BME280;21128;50.016;20.002;2022-11-15T15:46:33;98494.83;;;8.84;100.00
34921;BME280;21128;50.016;20.002;2022-11-15T15:49:26;98493.03;;;8.85;100.00
34921;BME280;21128;50.016;20.002;2022-11-15T15:52:12;98497.30;;;8.86;100.00
34921;BME280;21128;50.016;20.002;2022-11-15T15:54:57;98494.69;;;8.86;100.00
34921;BME280;21128;50.016;20.002;2022-11-15T15:57:43;98492.06;;;8.86;100.00
34921;BME280;21128;50.016;20.002;2022-11-15T16:00:28;98487.80;;;8.85;100.00
34921;BME280;21128;50.016;20.002;2022-11-15T16:03:14;98487.08;;;8.83;100.00
34921;BME280;21128;50.016;20.002;2022-11-15T16:06:32;98478.69;;;8.79;100.00
34921;BME280;21128;50.016;20.002;2022-11-15T16:09:19;98483.80;;;8.71;100.00
34921;BME280;21128;50.016;20.002;2022-11-15T16:12:29;98490.29;;;8.67;100.00
34921;BME280;21128;50.016;20.002;2022-11-15T16:15:15;98489.58;;;8.65;100.00
34921;BME280;21128;50.016;20.002;2022-11-15T16:18:14;98484.63;;;8.62;100.00
34921;BME280;21128;50.016;20.002;2022-11-15T16:21:00;98483.27;;;8.58;100.00
34921;BME280;21128;50.016;20.002;2022-11-15T16:23:46;98487.94;;;8.54;100.00